Time;durP1;ratioP1;P1;durP2;ratioP2;P2;SDS_P1;SDS_P2;PMS_P1;PMS_P2;Temp;Humidity;BMP_temperature;BMP_pressure;BME280_temperature;BME280_humidity;BME280_pressure;Samples;Min_cycle;Max_cycle;Signal;HPM_P1;HPM_P2
2022/02/07 00:09:14;;;;;;;6.75;3.70;;;20.00;56.90;;;;;;20922081;28;20474;-53
2022/02/07 00:19:22;;;;;;;8.52;3.83;;;19.90;56.90;;;;;;20920604;28;20045;-53
2022/02/07 00:29:23;;;;;;;7.00;3.25;;;19.90;56.80;;;;;;20962656;28;20059;-54
2022/02/07 00:39:31;;;;;;;9.23;3.17;;;19.80;56.80;;;;;;20963914;28;20059;-53
2022/02/07 00:49:33;;;;;;;6.40;3.25;;;19.80;57.00;;;;;;20907221;28;20072;-53
2022/02/07 00:59:34;;;;;;;7.95;3.15;;;19.80;56.90;;;;;;20925280;28;20414;-53
2022/02/07 01:09:49;;;;;;;7.45;2.70;;;19.70;57.00;;;;;;20913900;28;20056;-53
2022/02/07 01:51:08;;;;;;;3.95;2.38;;;19.60;57.10;;;;;;20930693;28;20049;-50
2022/02/07 02:01:09;;;;;;;5.10;2.53;;;19.50;57.10;;;;;;20917125;28;20121;-52
2022/02/07 02:11:12;;;;;;;5.13;2.45;;;19.50;57.00;;;;;;20935856;28;20534;-51
2022/02/07 02:52:08;;;;;;;5.28;2.20;;;19.40;56.80;;;;;;20921276;28;20048;-53
2022/02/07 03:02:10;;;;;;;2.75;1.83;;;19.40;56.90;;;;;;20941749;28;20049;-51
2022/02/07 03:12:15;;;;;;;3.67;1.88;;;19.30;56.90;;;;;;20941264;28;20468;-52
2022/02/07 03:22:25;;;;;;;5.15;2.08;;;19.30;56.90;;;;;;20919516;28;20064;-53
2022/02/07 03:32:32;;;;;;;3.90;1.70;;;19.30;56.90;;;;;;20938718;28;20053;-53
2022/02/07 03:42:40;;;;;;;3.40;2.17;;;19.20;56.70;;;;;;20933211;28;20059;-53
2022/02/07 03:53:00;;;;;;;3.72;1.98;;;19.20;56.60;;;;;;20910484;28;20468;-53
2022/02/07 04:03:14;;;;;;;4.20;2.38;;;19.20;56.70;;;;;;20943900;28;20135;-53
2022/02/07 04:13:35;;;;;;;5.80;1.58;;;19.20;56.80;;;;;;20939044;28;20053;-53
2022/02/07 04:23:38;;;;;;;3.92;1.90;;;19.10;56.90;;;;;;20944086;28;20052;-53
2022/02/07 04:34:00;;;;;;;3.60;1.80;;;19.10;56.80;;;;;;20982442;28;20087;-52
2022/02/07 04:44:27;;;;;;;3.13;1.90;;;19.10;56.80;;;;;;20923228;28;20114;-53
2022/02/07 04:55:05;;;;;;;3.17;1.45;;;19.00;56.70;;;;;;20908504;28;20519;-53
2022/02/07 05:15:39;;;;;;;3.03;1.52;;;19.00;56.70;;;;;;20918412;28;20143;-53
2022/02/07 05:26:00;;;;;;;2.42;1.42;;;19.30;56.30;;;;;;20906189;28;20411;-53
2022/02/07 05:36:20;;;;;;;1.58;1.33;;;19.80;55.60;;;;;;20990746;28;20446;-52
2022/02/07 05:46:27;;;;;;;1.93;1.30;;;20.40;54.80;;;;;;20903949;28;20135;-53
2022/02/07 05:56:38;;;;;;;2.08;1.23;;;20.90;54.10;;;;;;20906911;28;20049;-53
2022/02/07 06:06:49;;;;;;;3.42;1.08;;;21.20;53.40;;;;;;20932484;28;20060;-54
2022/02/07 06:16:51;;;;;;;2.67;1.13;;;21.40;52.90;;;;;;20958590;28;20074;-54
2022/02/07 06:26:58;;;;;;;2.75;1.42;;;21.50;52.50;;;;;;20967130;28;20044;-55
2022/02/07 06:37:07;;;;;;;2.10;1.50;;;21.40;52.30;;;;;;21001640;28;20470;-54
2022/02/07 06:47:19;;;;;;;2.55;1.30;;;21.20;52.40;;;;;;20917677;28;20052;-55
2022/02/07 06:57:22;;;;;;;1.80;1.23;;;20.80;52.80;;;;;;20916495;28;20515;-52
2022/02/07 07:07:28;;;;;;;1.73;1.17;;;20.60;53.00;;;;;;20930058;28;20060;-55
2022/02/07 07:17:41;;;;;;;2.80;1.42;;;20.40;53.20;;;;;;20931716;28;20519;-53
2022/02/07 07:28:05;;;;;;;3.65;1.48;;;20.20;53.60;;;;;;20924935;28;20070;-53
2022/02/07 07:38:14;;;;;;;1.30;1.05;;;19.90;53.90;;;;;;20958797;28;20053;-52
2022/02/07 07:48:23;;;;;;;2.95;1.55;;;19.80;54.00;;;;;;20946404;28;20052;-53
2022/02/07 08:19:27;;;;;;;2.28;1.58;;;19.50;54.30;;;;;;20930626;28;20101;-52
2022/02/07 08:29:30;;;;;;;3.72;1.48;;;19.40;54.40;;;;;;20923934;28;20067;-52
2022/02/07 08:39:31;;;;;;;3.17;1.38;;;19.30;54.60;;;;;;20919008;28;20044;-52
2022/02/07 08:49:39;;;;;;;3.80;1.33;;;19.30;55.00;;;;;;20973902;28;20063;-50
2022/02/07 09:00:03;;;;;;;3.72;1.38;;;19.90;54.40;;;;;;20935477;28;20772;-51
2022/02/07 09:10:05;;;;;;;2.30;1.17;;;20.70;53.20;;;;;;20931041;28;20043;-50
2022/02/07 09:20:10;;;;;;;3.35;1.55;;;21.30;52.30;;;;;;20925109;28;20052;-51
2022/02/07 09:30:28;;;;;;;2.00;1.30;;;21.90;51.70;;;;;;20940862;28;20099;-54
2022/02/07 09:40:53;;;;;;;4.97;1.77;;;22.40;51.30;;;;;;20935060;28;20080;-50
2022/02/07 09:51:14;;;;;;;6.05;1.48;;;22.90;50.20;;;;;;20945776;28;20044;-50
2022/02/07 10:01:38;;;;;;;10.05;2.45;;;23.40;49.30;;;;;;20954437;28;20393;-53
2022/02/07 10:54:58;;;;;;;14.18;3.03;;;24.90;48.90;;;;;;20944505;27;20405;-47
2022/02/07 11:05:22;;;;;;;6.25;2.88;;;24.30;50.50;;;;;;20963788;28;20098;-47
2022/02/07 11:16:01;;;;;;;12.35;3.38;;;24.20;50.10;;;;;;20927085;28;20083;-47
2022/02/07 11:26:36;;;;;;;10.40;3.53;;;23.90;49.90;;;;;;20932225;28;20049;-47
2022/02/07 11:36:39;;;;;;;8.13;2.72;;;23.70;49.10;;;;;;20969753;28;20346;-47
2022/02/07 11:46:41;;;;;;;6.00;2.33;;;23.50;49.50;;;;;;20961684;28;20060;-47
2022/02/07 12:06:46;;;;;;;6.32;2.40;;;22.90;50.20;;;;;;20922506;28;20077;-46
2022/02/07 12:16:52;;;;;;;6.38;2.30;;;22.70;50.50;;;;;;20949590;28;20088;-46
2022/02/07 12:27:01;;;;;;;4.03;2.47;;;22.40;50.90;;;;;;20925566;28;20057;-46
2022/02/07 12:37:03;;;;;;;6.40;2.50;;;22.20;51.20;;;;;;20978423;28;20214;-45
2022/02/07 12:47:09;;;;;;;6.10;2.40;;;22.10;51.50;;;;;;20952466;28;20040;-46
2022/02/07 12:57:12;;;;;;;4.38;1.73;;;21.90;51.80;;;;;;20950323;28;20092;-45
2022/02/07 13:07:20;;;;;;;6.57;1.73;;;21.80;51.90;;;;;;20910133;28;20071;-46
2022/02/07 13:17:24;;;;;;;3.65;2.05;;;21.70;52.10;;;;;;20951372;28;20053;-46
2022/02/07 13:27:26;;;;;;;6.07;1.88;;;21.60;52.30;;;;;;20923735;28;20060;-46
2022/02/07 13:37:32;;;;;;;5.35;2.13;;;21.60;52.40;;;;;;20990383;28;20052;-47
2022/02/07 13:47:36;;;;;;;4.50;1.75;;;21.50;52.50;;;;;;20954972;28;20115;-46
2022/02/07 13:58:02;;;;;;;4.35;1.92;;;21.40;52.60;;;;;;20906377;28;20386;-46
2022/02/07 14:08:06;;;;;;;4.90;2.38;;;21.40;52.80;;;;;;20934863;28;20480;-46
2022/02/07 14:18:11;;;;;;;4.30;1.88;;;21.20;53.00;;;;;;20935512;28;20055;-45
2022/02/07 14:28:14;;;;;;;4.15;1.63;;;21.20;53.10;;;;;;20977038;28;20049;-46
2022/02/07 14:38:16;;;;;;;3.88;1.95;;;21.10;53.20;;;;;;20951332;28;20082;-46
2022/02/07 14:48:17;;;;;;;8.77;2.45;;;21.00;53.20;;;;;;20947114;28;20128;-48
2022/02/07 14:58:21;;;;;;;6.30;2.15;;;20.90;53.20;;;;;;20932746;28;20127;-47
2022/02/07 15:08:24;;;;;;;3.88;2.00;;;21.00;53.20;;;;;;20942888;28;20480;-47
2022/02/07 15:18:25;;;;;;;5.53;2.03;;;21.10;53.10;;;;;;20940848;28;20195;-47
2022/02/07 15:28:28;;;;;;;4.35;1.83;;;21.20;52.90;;;;;;20932932;28;20076;-53
2022/02/07 15:38:33;;;;;;;4.65;1.77;;;21.20;52.70;;;;;;20940087;28;20064;-52
2022/02/07 15:48:36;;;;;;;6.20;2.15;;;21.40;52.60;;;;;;20965478;28;20051;-46
2022/02/07 15:58:37;;;;;;;4.00;1.67;;;21.50;52.30;;;;;;20953563;28;20187;-44
2022/02/07 16:08:39;;;;;;;3.30;1.95;;;21.60;52.00;;;;;;20980785;28;20565;-45
2022/02/07 16:18:41;;;;;;;7.50;3.45;;;21.50;52.00;;;;;;20942386;28;20499;-46
2022/02/07 16:28:43;;;;;;;9.45;3.78;;;21.30;50.60;;;;;;20946948;28;20385;-50
2022/02/07 16:38:45;;;;;;;11.43;3.80;;;21.20;51.00;;;;;;20965381;28;20067;-48
2022/02/07 16:48:46;;;;;;;4.10;2.45;;;21.10;51.10;;;;;;20980038;28;20468;-47
2022/02/07 16:58:47;;;;;;;7.20;3.10;;;21.20;51.20;;;;;;21046498;28;20128;-46
2022/02/07 17:08:53;;;;;;;6.63;2.70;;;21.20;51.30;;;;;;21056085;28;20052;-45
2022/02/07 17:18:54;;;;;;;6.18;2.45;;;21.20;51.50;;;;;;21051128;28;20079;-49
2022/02/07 17:29:00;;;;;;;8.25;2.50;;;21.20;51.50;;;;;;21031540;28;20051;-49
2022/02/07 17:39:03;;;;;;;5.28;2.20;;;21.20;51.30;;;;;;20989049;28;20052;-49
2022/02/07 17:49:05;;;;;;;4.53;1.88;;;21.10;51.40;;;;;;20990652;28;20052;-51
2022/02/07 17:59:10;;;;;;;3.15;1.60;;;21.00;51.70;;;;;;21072605;28;20074;-48
2022/02/07 18:09:12;;;;;;;4.93;2.05;;;20.80;52.00;;;;;;21005204;28;20143;-51
2022/02/07 18:19:21;;;;;;;2.40;1.70;;;20.60;52.30;;;;;;21112662;28;20066;-50
2022/02/07 18:29:22;;;;;;;4.68;1.60;;;20.50;52.50;;;;;;21000245;28;20471;-50
2022/02/07 18:39:25;;;;;;;2.30;1.67;;;20.40;52.60;;;;;;20986905;28;20060;-50
2022/02/07 18:49:26;;;;;;;4.47;2.30;;;20.40;52.80;;;;;;21060985;28;20044;-51
2022/02/07 18:59:33;;;;;;;4.60;2.20;;;20.30;52.90;;;;;;21069798;28;20455;-51
2022/02/07 19:09:34;;;;;;;5.43;2.05;;;20.20;53.10;;;;;;21071676;28;20548;-53
2022/02/07 19:19:36;;;;;;;5.03;2.00;;;20.20;53.30;;;;;;21050399;28;20528;-51
2022/02/07 19:29:41;;;;;;;3.55;2.00;;;20.10;53.40;;;;;;21050922;28;20456;-51
2022/02/07 19:39:43;;;;;;;2.92;1.83;;;20.00;53.40;;;;;;21055318;28;20106;-50
2022/02/07 19:49:47;;;;;;;3.78;2.13;;;20.00;53.50;;;;;;21145156;28;20444;-49
2022/02/07 19:59:49;;;;;;;5.43;1.83;;;19.90;53.50;;;;;;21042175;28;20510;-50
2022/02/07 20:09:55;;;;;;;3.33;1.75;;;19.80;53.60;;;;;;21059380;28;20471;-47
2022/02/07 20:19:58;;;;;;;1.98;1.17;;;19.80;54.00;;;;;;21069951;28;20051;-48
2022/02/07 20:29:59;;;;;;;8.15;0.90;;;19.70;52.70;;;;;;21070820;28;20227;-46
2022/02/07 20:40:00;;;;;;;1.15;0.73;;;19.70;51.50;;;;;;21050696;28;20056;-49
2022/02/07 20:50:03;;;;;;;8.10;1.90;;;19.70;51.80;;;;;;21075567;28;20090;-50
2022/02/07 21:00:06;;;;;;;12.60;4.30;;;19.70;51.60;;;;;;21075405;28;20452;-47
2022/02/07 21:10:09;;;;;;;12.23;4.28;;;19.70;51.50;;;;;;21084198;28;20471;-50
2022/02/07 21:20:12;;;;;;;7.60;2.75;;;19.70;51.30;;;;;;21072745;28;20131;-50
2022/02/07 21:30:16;;;;;;;9.57;3.88;;;19.70;51.20;;;;;;21044128;28;20083;-50
2022/02/07 21:40:19;;;;;;;14.57;3.97;;;19.70;51.20;;;;;;21028361;28;20107;-52
2022/02/07 21:50:22;;;;;;;9.05;3.67;;;19.60;51.80;;;;;;21019455;28;20503;-47
2022/02/07 22:00:23;;;;;;;12.60;3.83;;;19.70;52.10;;;;;;21024677;28;20101;-48
2022/02/07 22:10:25;;;;;;;10.60;2.45;;;20.10;52.20;;;;;;21013508;28;20045;-48
2022/02/07 22:20:27;;;;;;;9.57;3.58;;;20.60;52.10;;;;;;21022349;28;20052;-48
2022/02/07 22:30:28;;;;;;;7.57;2.63;;;21.20;51.90;;;;;;21038222;28;20051;-47
2022/02/07 22:40:30;;;;;;;7.88;2.63;;;21.80;51.50;;;;;;21053725;28;20048;-48
2022/02/07 22:50:32;;;;;;;8.13;3.03;;;22.20;51.10;;;;;;21061498;28;20075;-49
2022/02/07 23:00:38;;;;;;;8.68;2.28;;;22.40;50.90;;;;;;21050263;28;20044;-48
